createdAt,value
2023-02-23T00:00:43.542Z,54.8
2023-02-23T00:02:43.540Z,54.7
2023-02-23T00:07:43.764Z,55
2023-02-23T00:08:43.535Z,55.2
2023-02-23T00:10:43.575Z,55.1
2023-02-23T00:13:43.955Z,54.5
2023-02-23T00:15:43.436Z,54.5
2023-02-23T00:17:43.797Z,55.1
2023-02-23T00:18:43.828Z,55.2
2023-02-23T00:21:43.420Z,55.9
2023-02-23T00:24:43.436Z,55.3
2023-02-23T00:25:43.976Z,55.2
2023-02-23T00:28:43.578Z,54.6
2023-02-23T00:30:43.382Z,54.3
2023-02-23T00:31:43.450Z,54.5
2023-02-23T00:36:43.666Z,54.9
2023-02-23T00:37:43.622Z,54.8
2023-02-23T00:39:43.424Z,54.7
2023-02-23T00:40:43.610Z,55.1
2023-02-23T00:41:43.350Z,54.8
2023-02-23T00:47:43.407Z,55.2
2023-02-23T00:49:43.448Z,55.1
2023-02-23T00:52:43.804Z,55.1
2023-02-23T00:53:43.261Z,54.9
2023-02-23T00:55:43.818Z,54.7
2023-02-23T00:57:43.558Z,54.5
2023-02-23T00:58:43.526Z,54.8
2023-02-23T01:00:43.480Z,55.3
2023-02-23T01:02:43.791Z,55.3
2023-02-23T01:03:43.685Z,55.5
2023-02-23T01:04:43.575Z,55.7
2023-02-23T01:05:43.739Z,55.7
2023-02-23T01:06:43.482Z,55.7
2023-02-23T01:09:43.931Z,55.4
2023-02-23T01:11:43.938Z,55.6
2023-02-23T01:12:43.591Z,55.6
2023-02-23T01:13:43.406Z,55.8
2023-02-23T01:16:43.217Z,55.4
2023-02-23T01:18:43.774Z,55.7
2023-02-23T01:19:43.834Z,56.1
2023-02-23T01:20:43.970Z,55.9
2023-02-23T01:21:43.562Z,56.1
2023-02-23T01:24:43.360Z,55.4
2023-02-23T01:25:43.659Z,55.6
2023-02-23T01:29:43.425Z,55.6
2023-02-23T01:30:43.570Z,55.4
2023-02-23T01:31:43.944Z,55.3
2023-02-23T01:33:43.471Z,55.5
2023-02-23T01:37:43.548Z,54.9
2023-02-23T01:44:43.475Z,55.4
2023-02-23T01:48:43.239Z,55.5
2023-02-23T01:51:43.714Z,55.2
2023-02-23T01:53:43.543Z,55.4
2023-02-23T02:04:43.746Z,55.8
2023-02-23T02:06:43.553Z,55.7
2023-02-23T02:09:43.330Z,55.8
2023-02-23T02:10:43.358Z,55.8
2023-02-23T02:12:43.233Z,55.7
2023-02-23T02:15:43.596Z,55.8
2023-02-23T02:16:43.649Z,55.8
2023-02-23T02:20:43.636Z,55.5
2023-02-23T02:26:43.255Z,56.1
2023-02-23T02:27:43.526Z,56.3
2023-02-23T02:28:44.066Z,56
2023-02-23T02:30:43.587Z,56.3
2023-02-23T02:31:43.474Z,56.3
2023-02-23T02:32:43.826Z,56.1
2023-02-23T02:34:43.831Z,56.3
2023-02-23T02:36:43.410Z,56.4
2023-02-23T02:37:43.207Z,56.6
2023-02-23T02:38:43.602Z,56.6
2023-02-23T02:39:43.582Z,56.5
2023-02-23T02:40:43.301Z,56.5
2023-02-23T02:41:43.704Z,56.4
2023-02-23T02:47:43.967Z,56
2023-02-23T02:48:43.831Z,56.1
2023-02-23T02:49:43.263Z,56.1
2023-02-23T02:54:43.457Z,56.2
2023-02-23T02:55:43.329Z,56.3
2023-02-23T02:56:43.487Z,56.3
2023-02-23T03:02:43.484Z,56.3
2023-02-23T03:03:43.321Z,56
2023-02-23T03:08:43.442Z,56
2023-02-23T03:12:43.673Z,55.9
2023-02-23T03:13:43.791Z,55.7
2023-02-23T03:14:44.024Z,55.8
2023-02-23T03:15:43.539Z,55.9
2023-02-23T03:28:43.884Z,56.3
2023-02-23T03:30:43.589Z,56.1
2023-02-23T03:33:43.443Z,56.6
2023-02-23T03:35:43.521Z,56.2
2023-02-23T03:37:43.636Z,56.2
2023-02-23T03:39:44.068Z,56.1
2023-02-23T03:42:43.578Z,56.3
2023-02-23T03:44:43.527Z,56.1
2023-02-23T03:45:43.956Z,56
2023-02-23T03:47:43.784Z,56.1
2023-02-23T03:49:43.534Z,56.1
2023-02-23T03:51:44.018Z,56.2
2023-02-23T03:54:43.528Z,55.9
2023-02-23T03:55:43.747Z,56.1
2023-02-23T03:56:43.571Z,56.2
2023-02-23T04:00:43.492Z,56.5
2023-02-23T04:01:44.022Z,56.6
2023-02-23T04:04:43.253Z,56.9
2023-02-23T04:08:43.274Z,56.7
2023-02-23T04:09:43.602Z,56.6
2023-02-23T04:15:43.401Z,56.1
2023-02-23T04:16:43.397Z,56.1
2023-02-23T04:17:43.734Z,56.2
2023-02-23T04:18:43.304Z,56.4
2023-02-23T04:22:43.793Z,56.6
2023-02-23T04:24:43.659Z,56.5
2023-02-23T04:25:43.339Z,56.5
2023-02-23T04:26:43.883Z,56.7
2023-02-23T04:27:43.489Z,56.6
2023-02-23T04:30:43.367Z,56.6
2023-02-23T04:32:43.345Z,56.5
2023-02-23T04:34:43.934Z,56.2
2023-02-23T04:35:43.920Z,56.3
2023-02-23T04:36:43.512Z,56.4
2023-02-23T04:37:43.222Z,56.4
2023-02-23T04:38:43.845Z,56.2
2023-02-23T04:40:43.288Z,56.2
2023-02-23T04:44:43.472Z,56
2023-02-23T04:45:43.713Z,56.2
2023-02-23T04:48:43.755Z,56.2
2023-02-23T04:49:43.695Z,56.1
2023-02-23T04:50:43.537Z,55.9
2023-02-23T04:52:43.730Z,55.9
2023-02-23T04:53:43.799Z,56.1
2023-02-23T04:55:44.807Z,56.1
2023-02-23T04:57:43.273Z,55.9
2023-02-23T04:59:43.642Z,55.9
2023-02-23T05:00:44.010Z,56.3
2023-02-23T05:01:44.097Z,56.4
2023-02-23T05:02:48.081Z,56.4
2023-02-23T05:03:46.712Z,56.3
2023-02-23T05:04:46.776Z,56.5
2023-02-23T05:05:46.707Z,56.5
2023-02-23T05:06:46.721Z,56.5
2023-02-23T05:07:46.728Z,56.4
2023-02-23T05:08:46.708Z,56.4
2023-02-23T05:09:46.714Z,56.7
2023-02-23T05:10:46.746Z,56.6
2023-02-23T05:12:46.702Z,56.6
2023-02-23T05:13:46.710Z,56.8
2023-02-23T05:14:46.716Z,56.9
2023-02-23T05:15:46.734Z,56.7
2023-02-23T05:16:46.709Z,56.7
2023-02-23T05:17:46.712Z,56.8
2023-02-23T05:18:46.704Z,56.8
2023-02-23T05:19:46.710Z,56.7
2023-02-23T05:20:46.709Z,57.3
2023-02-23T05:21:46.707Z,57.5
2023-02-23T05:22:46.721Z,57.6
2023-02-23T05:23:46.712Z,57.3
2023-02-23T05:24:46.714Z,57.3
2023-02-23T05:25:46.726Z,57.1
2023-02-23T05:26:46.715Z,57.2
2023-02-23T05:27:46.719Z,57
2023-02-23T05:28:46.721Z,56.9
2023-02-23T05:29:46.712Z,57.1
2023-02-23T05:30:46.837Z,57.1
2023-02-23T05:31:46.905Z,56.9
2023-02-23T05:32:47.523Z,56.6
2023-02-23T05:33:46.754Z,56.5
2023-02-23T05:34:46.712Z,56.5
2023-02-23T05:35:46.795Z,56.5
2023-02-23T05:36:46.705Z,56.5
2023-02-23T05:37:46.710Z,56.7
2023-02-23T05:38:46.719Z,56.8
2023-02-23T05:39:46.754Z,57.1
2023-02-23T05:40:46.707Z,57.3
2023-02-23T05:41:46.716Z,57
2023-02-23T05:42:46.716Z,57.3
2023-02-23T05:43:46.706Z,57.1
2023-02-23T05:44:46.713Z,57.1
2023-02-23T05:45:46.714Z,57.2
2023-02-23T05:46:46.715Z,56.9
2023-02-23T05:47:46.704Z,56.9
2023-02-23T05:48:46.715Z,57
2023-02-23T05:49:46.724Z,57.1
2023-02-23T05:50:46.716Z,57.3
2023-02-23T05:51:46.706Z,57.2
2023-02-23T05:52:46.705Z,57.2
2023-02-23T05:53:46.709Z,57.3
2023-02-23T05:54:46.743Z,57.4
2023-02-23T05:55:46.720Z,57.1
2023-02-23T05:56:46.728Z,56.9
2023-02-23T05:58:46.706Z,57.2
2023-02-23T05:59:46.710Z,57.1
2023-02-23T06:00:46.715Z,57.1
2023-02-23T06:01:46.719Z,57.1
2023-02-23T06:02:46.789Z,57
2023-02-23T06:03:46.764Z,57.2
2023-02-23T06:04:46.750Z,57.5
2023-02-23T06:05:46.729Z,57.4
2023-02-23T06:06:46.719Z,57.2
2023-02-23T06:07:46.722Z,57.5
2023-02-23T06:08:46.716Z,57.1
2023-02-23T06:09:46.716Z,57.1
2023-02-23T06:10:46.722Z,57
2023-02-23T06:11:46.735Z,57.4
2023-02-23T06:12:46.729Z,57.1
2023-02-23T06:13:46.722Z,57
2023-02-23T06:14:46.716Z,57.4
2023-02-23T06:15:46.725Z,57.5
2023-02-23T06:16:46.760Z,57.5
2023-02-23T06:17:46.716Z,57.2
2023-02-23T06:18:46.725Z,57.6
2023-02-23T06:19:46.715Z,57.4
2023-02-23T06:20:46.728Z,57.6
2023-02-23T06:21:46.747Z,57.3
2023-02-23T06:22:46.718Z,57.4
2023-02-23T06:23:46.716Z,57.1
2023-02-23T06:24:46.737Z,57.3
2023-02-23T06:25:46.722Z,57.3
2023-02-23T06:26:46.732Z,57.5
2023-02-23T06:27:46.718Z,57.4
2023-02-23T06:28:46.723Z,57.4
2023-02-23T06:29:46.719Z,57.9
2023-02-23T06:30:46.845Z,57.8
2023-02-23T06:31:46.854Z,57.7
2023-02-23T06:32:46.725Z,57.9
2023-02-23T06:33:46.724Z,58
2023-02-23T06:34:46.729Z,58.3
2023-02-23T06:35:46.761Z,59.1
2023-02-23T06:36:46.722Z,59
2023-02-23T06:37:46.720Z,60
2023-02-23T06:38:46.722Z,59.5
2023-02-23T06:39:46.762Z,59.1
2023-02-23T06:40:46.732Z,58.6
2023-02-23T06:41:46.728Z,58.4
2023-02-23T06:42:46.718Z,58.8
2023-02-23T06:43:46.726Z,59.3
2023-02-23T06:44:46.721Z,58.9
2023-02-23T06:45:46.726Z,58.5
2023-02-23T06:46:46.774Z,58.8
2023-02-23T06:48:46.728Z,58.8
2023-02-23T06:49:46.731Z,59.3
2023-02-23T06:50:46.741Z,61.2
2023-02-23T06:51:46.839Z,60.4
2023-02-23T06:52:46.735Z,60.7
2023-02-23T06:53:46.726Z,61.5
2023-02-23T06:54:46.726Z,60.5
2023-02-23T06:55:46.730Z,59.9
2023-02-23T06:56:46.720Z,59.6
2023-02-23T06:57:46.732Z,60.4
2023-02-23T06:58:46.725Z,60.4
2023-02-23T06:59:46.730Z,60.3
2023-02-23T07:00:46.729Z,59.9
2023-02-23T07:01:46.810Z,59.8
2023-02-23T07:02:46.747Z,59.4
2023-02-23T07:03:46.787Z,59.5
2023-02-23T07:04:46.727Z,59.8
2023-02-23T07:05:46.728Z,59.5
2023-02-23T07:06:46.751Z,59.1
2023-02-23T07:07:46.775Z,59.1
2023-02-23T07:08:46.734Z,58.7
2023-02-23T07:09:46.724Z,58.5
2023-02-23T07:10:46.733Z,58.6
2023-02-23T07:11:46.732Z,58
2023-02-23T07:12:46.734Z,58.3
2023-02-23T07:13:46.722Z,58.7
2023-02-23T07:15:46.740Z,59.4
2023-02-23T07:16:46.746Z,59
2023-02-23T07:17:46.729Z,59.3
2023-02-23T07:18:46.735Z,60.2
2023-02-23T07:19:46.742Z,60.6
2023-02-23T07:20:46.738Z,60
2023-02-23T07:21:46.725Z,59.4
2023-02-23T07:22:46.740Z,59.5
2023-02-23T07:23:46.725Z,59.8
2023-02-23T07:24:46.770Z,59.6
2023-02-23T07:25:46.746Z,59.3
2023-02-23T07:26:46.737Z,59.6
2023-02-23T07:27:46.724Z,60.2
2023-02-23T07:28:46.755Z,60.8
2023-02-23T07:29:46.739Z,61.3
2023-02-23T07:30:46.760Z,60.7
2023-02-23T07:31:46.951Z,60.3
2023-02-23T07:32:46.877Z,60
2023-02-23T07:33:46.724Z,59.7
2023-02-23T07:34:46.725Z,59.4
2023-02-23T07:35:46.725Z,58.9
2023-02-23T07:36:46.750Z,58.9
2023-02-23T07:37:46.758Z,59.3
2023-02-23T07:38:46.730Z,60
2023-02-23T07:39:46.734Z,59.5
2023-02-23T07:40:46.722Z,60.8
2023-02-23T07:41:46.742Z,60.6
2023-02-23T07:42:46.736Z,61.3
2023-02-23T07:43:46.737Z,60.7
2023-02-23T07:44:46.742Z,60.6
2023-02-23T07:45:47.007Z,61
2023-02-23T07:46:46.772Z,61.4
2023-02-23T07:47:46.732Z,61.3
2023-02-23T07:48:46.733Z,60.7
2023-02-23T07:49:46.734Z,61.7
2023-02-23T07:50:46.735Z,61.8
2023-02-23T07:51:46.752Z,62.5
2023-02-23T07:52:46.742Z,62.7
2023-02-23T07:53:46.744Z,62.7
2023-02-23T07:54:46.733Z,62.1
2023-02-23T07:55:46.735Z,62.2
2023-02-23T07:56:46.741Z,61.5
2023-02-23T07:57:46.733Z,61
2023-02-23T07:58:46.731Z,61.3
2023-02-23T07:59:46.744Z,61.3
2023-02-23T08:01:46.739Z,60.1
2023-02-23T08:02:46.745Z,60.5
2023-02-23T08:03:46.738Z,60.8
2023-02-23T08:04:46.737Z,60.8
2023-02-23T08:05:46.738Z,61
2023-02-23T08:06:46.734Z,60.6
2023-02-23T08:07:46.735Z,60.1
2023-02-23T08:08:46.845Z,60.6
2023-02-23T08:09:46.735Z,60.5
2023-02-23T08:10:48.518Z,59.9
2023-02-23T08:11:46.740Z,59.5
2023-02-23T08:12:46.775Z,59.2
2023-02-23T08:13:46.754Z,59.5
2023-02-23T08:14:46.747Z,59
2023-02-23T08:15:46.743Z,59
2023-02-23T08:16:46.844Z,59.2
2023-02-23T08:17:46.745Z,59.1
2023-02-23T08:18:46.824Z,58.8
2023-02-23T08:19:46.746Z,59.7
2023-02-23T08:20:46.749Z,59.2
2023-02-23T08:22:49.608Z,59.9
2023-02-23T08:23:46.748Z,59.5
2023-02-23T08:24:46.741Z,59.6
2023-02-23T08:26:46.746Z,58.8
2023-02-23T08:27:46.747Z,58.7
2023-02-23T08:28:46.746Z,58.7
2023-02-23T08:29:46.747Z,59.5
2023-02-23T08:30:46.816Z,60.2
2023-02-23T08:31:46.883Z,59.3
2023-02-23T08:33:46.741Z,59.8
2023-02-23T08:34:46.758Z,59.3
2023-02-23T08:35:46.742Z,59.2
2023-02-23T08:36:46.749Z,59.1
2023-02-23T08:37:46.745Z,59.1
2023-02-23T08:38:46.737Z,58.9
2023-02-23T08:39:46.763Z,60.2
2023-02-23T08:40:46.742Z,60.3
2023-02-23T08:41:46.737Z,59.9
2023-02-23T08:42:46.746Z,59.3
2023-02-23T08:43:46.750Z,59
2023-02-23T08:44:46.755Z,59.5
2023-02-23T08:45:46.741Z,58.9
2023-02-23T08:46:46.740Z,58.2
2023-02-23T08:47:46.746Z,59.2
2023-02-23T08:48:46.741Z,59.6
2023-02-23T08:49:46.796Z,59
2023-02-23T08:50:46.750Z,59.1
2023-02-23T08:51:46.744Z,58.6
2023-02-23T08:52:46.756Z,60.1
2023-02-23T08:53:46.743Z,60.4
2023-02-23T08:54:46.748Z,60.7
2023-02-23T08:55:46.746Z,59.7
2023-02-23T08:56:46.748Z,59.6
2023-02-23T08:57:46.748Z,59.2
2023-02-23T08:58:46.743Z,59.1
2023-02-23T08:59:46.754Z,58.6
2023-02-23T09:00:46.737Z,58.5
2023-02-23T09:01:46.843Z,58.4
2023-02-23T09:02:46.740Z,58.3
2023-02-23T09:03:46.746Z,58.5
2023-02-23T09:04:46.742Z,58.1
2023-02-23T09:05:46.836Z,58.8
2023-02-23T09:06:46.741Z,59
2023-02-23T09:07:46.741Z,58.8
2023-02-23T09:08:46.749Z,59.1
2023-02-23T09:09:46.744Z,58.9
2023-02-23T09:10:46.776Z,60.7
2023-02-23T09:11:46.739Z,61
2023-02-23T09:12:46.770Z,60.3
2023-02-23T09:13:46.734Z,60
2023-02-23T09:14:46.743Z,59.8
2023-02-23T09:15:46.743Z,60
2023-02-23T09:16:46.735Z,60.1
2023-02-23T09:17:46.737Z,59.8
2023-02-23T09:18:46.749Z,60.6
2023-02-23T09:19:46.759Z,61.7
2023-02-23T09:20:46.801Z,61
2023-02-23T09:21:46.740Z,60.8
2023-02-23T09:22:46.748Z,60.6
2023-02-23T09:23:46.767Z,60.9
2023-02-23T09:24:46.769Z,60.1
2023-02-23T09:25:46.745Z,60.2
2023-02-23T09:26:46.758Z,59.8
2023-02-23T09:27:46.742Z,60.4
2023-02-23T09:28:46.762Z,60.1
2023-02-23T09:29:46.748Z,59.4
2023-02-23T09:30:46.823Z,59.4
2023-02-23T09:31:46.940Z,59.9
2023-02-23T09:32:46.771Z,59.7
2023-02-23T09:33:46.743Z,60.5
2023-02-23T09:34:46.757Z,60.4
2023-02-23T09:35:46.765Z,60.1
2023-02-23T09:36:46.747Z,61
2023-02-23T09:37:46.742Z,61.7
2023-02-23T09:38:46.748Z,61.4
2023-02-23T09:39:46.748Z,61.2
2023-02-23T09:40:46.746Z,61.3
2023-02-23T09:41:46.780Z,61.1
2023-02-23T09:42:46.749Z,60.3
2023-02-23T09:44:46.741Z,60.3
2023-02-23T09:45:46.805Z,59.6
2023-02-23T09:46:46.765Z,59.7
2023-02-23T09:47:46.746Z,59.2
2023-02-23T09:48:46.752Z,60.3
2023-02-23T09:49:46.742Z,59.5
2023-02-23T09:50:46.753Z,59.8
2023-02-23T09:51:46.745Z,60.3
2023-02-23T09:54:46.742Z,59.7
2023-02-23T09:55:46.744Z,59.7
2023-02-23T09:56:46.747Z,60.5
2023-02-23T09:57:46.746Z,61.1
2023-02-23T09:58:46.747Z,60.6
2023-02-23T09:59:46.749Z,60.8
2023-02-23T10:00:46.756Z,61.2
2023-02-23T10:01:46.832Z,61
2023-02-23T10:02:46.762Z,60.9
2023-02-23T10:03:46.744Z,60
2023-02-23T10:04:46.781Z,59.5
2023-02-23T10:05:46.755Z,59.3
2023-02-23T10:06:46.790Z,58.4
2023-02-23T10:07:46.754Z,59.2
2023-02-23T10:08:46.751Z,59.3
2023-02-23T10:09:46.759Z,59.5
2023-02-23T10:10:46.761Z,59.3
2023-02-23T10:11:46.765Z,58.7
2023-02-23T10:12:46.786Z,58.5
2023-02-23T10:15:46.831Z,58
2023-02-23T10:16:46.963Z,57.5
2023-02-23T10:17:46.766Z,57.6
2023-02-23T10:18:47.471Z,57.3
2023-02-23T10:19:46.756Z,57.7
2023-02-23T10:20:46.763Z,57.8
2023-02-23T10:21:46.765Z,57.8
2023-02-23T10:22:46.757Z,59.4
2023-02-23T10:23:46.764Z,60.1
2023-02-23T10:25:46.756Z,59.7
2023-02-23T10:26:46.758Z,58.9
2023-02-23T10:27:46.771Z,59.4
2023-02-23T10:28:46.974Z,60.1
2023-02-23T10:29:46.762Z,60.2
2023-02-23T10:30:46.862Z,59.9
2023-02-23T10:31:46.883Z,59.8
2023-02-23T10:32:46.759Z,59.6
2023-02-23T10:33:46.775Z,59.2
2023-02-23T10:35:46.762Z,58.7
2023-02-23T10:36:46.759Z,58.6
2023-02-23T10:37:46.754Z,59.6
2023-02-23T10:38:46.758Z,59.5
2023-02-23T10:39:47.850Z,59.6
2023-02-23T10:40:46.762Z,59.1
2023-02-23T10:41:46.764Z,59.4
2023-02-23T10:42:46.763Z,59.3
2023-02-23T10:43:46.783Z,59.4
2023-02-23T10:44:46.765Z,59.5
2023-02-23T10:45:46.766Z,59.2
2023-02-23T10:46:46.853Z,58.8
2023-02-23T10:47:46.760Z,58.6
2023-02-23T10:48:46.873Z,58.6
2023-02-23T10:49:46.760Z,57.9
2023-02-23T10:50:46.765Z,58.3
2023-02-23T10:51:46.759Z,58.5
2023-02-23T10:52:46.809Z,57.9
2023-02-23T10:53:46.768Z,57.7
2023-02-23T10:54:46.758Z,58.3
2023-02-23T10:55:46.762Z,59.4
2023-02-23T10:56:46.764Z,59.4
2023-02-23T10:57:46.759Z,59.1
2023-02-23T10:58:46.865Z,59.4
2023-02-23T10:59:46.761Z,58.6
2023-02-23T11:00:46.775Z,59.5
2023-02-23T11:02:00.820Z,58.9
2023-02-23T11:02:46.790Z,58.6
2023-02-23T11:03:50.040Z,58.4
2023-02-23T11:04:46.881Z,58.3
2023-02-23T11:05:46.796Z,59.2
2023-02-23T11:06:46.765Z,58.6
2023-02-23T11:07:46.761Z,58.6
2023-02-23T11:08:46.765Z,59.7
2023-02-23T11:09:48.371Z,59.8
2023-02-23T11:10:46.768Z,59.4
2023-02-23T11:11:46.767Z,59.8
2023-02-23T11:12:46.757Z,58.7
2023-02-23T11:13:46.765Z,58.5
2023-02-23T11:14:46.821Z,59.1
2023-02-23T11:15:50.918Z,58.9
2023-02-23T11:16:46.872Z,57.9
2023-02-23T11:17:46.760Z,57.9
2023-02-23T11:18:46.755Z,57.3
2023-02-23T11:19:47.203Z,57.2
2023-02-23T11:20:46.759Z,56.6
2023-02-23T11:21:46.768Z,56.7
2023-02-23T11:22:46.758Z,56.6
2023-02-23T11:23:46.766Z,57.6
2023-02-23T11:24:46.767Z,58.6
2023-02-23T11:25:49.227Z,58.7
2023-02-23T11:26:46.842Z,58.8
2023-02-23T11:27:46.776Z,58.2
2023-02-23T11:28:46.762Z,58.9
2023-02-23T11:29:46.765Z,59
2023-02-23T11:30:46.791Z,58.5
2023-02-23T11:32:46.871Z,57.8
2023-02-23T11:33:46.764Z,57.3
2023-02-23T11:34:46.775Z,57.5
2023-02-23T11:36:46.769Z,57.1
2023-02-23T11:37:46.763Z,57.3
2023-02-23T11:38:46.761Z,57.3
2023-02-23T11:39:46.761Z,57
2023-02-23T11:40:46.758Z,56.8
2023-02-23T11:41:46.763Z,57.2
2023-02-23T11:42:46.765Z,57.4
2023-02-23T11:43:46.762Z,57.6
2023-02-23T11:44:46.769Z,56.6
2023-02-23T11:45:46.840Z,56.7
2023-02-23T11:46:46.841Z,57.5
2023-02-23T11:47:49.394Z,56.7
2023-02-23T11:48:46.843Z,57.1
2023-02-23T11:49:46.887Z,57.3
2023-02-23T11:50:46.777Z,58.4
2023-02-23T11:51:46.761Z,58
2023-02-23T11:52:46.767Z,57.8
2023-02-23T11:53:46.780Z,57.7
2023-02-23T11:54:46.764Z,57.5
2023-02-23T11:55:46.766Z,57.6
2023-02-23T11:56:46.774Z,57.6
2023-02-23T11:57:46.779Z,58.1
2023-02-23T11:58:46.762Z,57.9
2023-02-23T11:59:48.102Z,57.4
2023-02-23T12:00:46.772Z,57
2023-02-23T12:01:46.798Z,57
2023-02-23T12:02:46.804Z,57.4
2023-02-23T12:03:46.771Z,57.4
2023-02-23T12:04:46.813Z,57
2023-02-23T12:05:46.771Z,56.5
2023-02-23T12:06:46.810Z,56.1
2023-02-23T12:07:46.769Z,56.8
2023-02-23T12:08:46.778Z,57.7
2023-02-23T12:09:46.771Z,58.9
2023-02-23T12:10:46.843Z,58.2
2023-02-23T12:11:48.667Z,57.3
2023-02-23T12:12:46.793Z,57.7
2023-02-23T12:13:46.761Z,57
2023-02-23T12:14:46.774Z,58.3
2023-02-23T12:15:46.772Z,57.3
2023-02-23T12:16:46.832Z,56.2
2023-02-23T12:18:46.770Z,55.2
2023-02-23T12:19:46.781Z,55.5
2023-02-23T12:20:46.775Z,55.9
2023-02-23T12:21:46.794Z,56.7
2023-02-23T12:22:46.783Z,57.5
2023-02-23T12:23:48.722Z,56.6
2023-02-23T12:24:46.772Z,57.4
2023-02-23T12:25:46.801Z,57.4
2023-02-23T12:26:46.782Z,57.6
2023-02-23T12:28:46.772Z,58.4
2023-02-23T12:29:46.765Z,59.1
2023-02-23T12:30:46.873Z,59
2023-02-23T12:31:46.978Z,59.4
2023-02-23T12:32:46.770Z,58.7
2023-02-23T12:33:46.774Z,57.9
2023-02-23T12:34:46.772Z,56.9
2023-02-23T12:35:46.799Z,57
2023-02-23T12:36:46.778Z,56.7
2023-02-23T12:37:46.772Z,57.4
2023-02-23T12:38:46.768Z,57.5
2023-02-23T12:39:46.783Z,56.7
2023-02-23T12:40:46.781Z,56.2
2023-02-23T12:41:46.771Z,56.8
2023-02-23T12:42:46.776Z,56.7
2023-02-23T12:43:46.794Z,56.7
2023-02-23T12:44:46.834Z,56.3
2023-02-23T12:45:46.799Z,56.3
2023-02-23T12:46:46.765Z,55.9
2023-02-23T12:47:46.787Z,55.4
2023-02-23T12:48:46.760Z,55.9
2023-02-23T12:49:46.772Z,55.3
2023-02-23T12:50:46.770Z,54.9
2023-02-23T12:51:46.776Z,55.4
2023-02-23T12:52:46.772Z,55.6
2023-02-23T12:53:46.794Z,55.2
2023-02-23T12:54:46.801Z,55
2023-02-23T12:55:46.774Z,55.1
2023-02-23T12:56:46.790Z,54.8
2023-02-23T12:57:46.770Z,55.1
2023-02-23T12:58:46.769Z,55.2
2023-02-23T12:59:46.766Z,55.4
2023-02-23T13:00:48.463Z,55.8
2023-02-23T13:01:46.840Z,56.4
2023-02-23T13:02:46.817Z,56.8
2023-02-23T13:03:46.777Z,56.9
2023-02-23T13:04:46.774Z,57.8
2023-02-23T13:05:46.788Z,56.8
2023-02-23T13:06:46.807Z,57
2023-02-23T13:07:46.783Z,57.1
2023-02-23T13:08:46.780Z,57.1
2023-02-23T13:09:46.787Z,56.9
2023-02-23T13:10:46.805Z,56.9
2023-02-23T13:11:46.788Z,57.9
2023-02-23T13:12:46.829Z,57.7
2023-02-23T13:13:46.775Z,57.6
2023-02-23T13:14:46.782Z,57.8
2023-02-23T13:15:46.782Z,57.3
2023-02-23T13:16:46.862Z,57.6
2023-02-23T13:17:46.776Z,57.5
2023-02-23T13:18:46.804Z,57
2023-02-23T13:19:46.779Z,56.5
2023-02-23T13:20:46.782Z,56.5
2023-02-23T13:21:46.771Z,56
2023-02-23T13:22:46.782Z,55.8
2023-02-23T13:23:46.811Z,55.7
2023-02-23T13:25:46.778Z,55.6
2023-02-23T13:27:46.784Z,56.8
2023-02-23T13:28:46.812Z,56.2
2023-02-23T13:29:46.789Z,55.7
2023-02-23T13:30:46.883Z,55.5
2023-02-23T13:31:47.042Z,55.5
2023-02-23T13:32:46.944Z,55.2
2023-02-23T13:33:46.780Z,55.4
2023-02-23T13:34:46.783Z,55.9
2023-02-23T13:35:46.786Z,56.5
2023-02-23T13:36:46.777Z,56.1
2023-02-23T13:37:46.802Z,56.9
2023-02-23T13:38:46.777Z,57.1
2023-02-23T13:39:46.780Z,56.3
2023-02-23T13:40:46.843Z,56.1
2023-02-23T13:41:46.780Z,56.2
2023-02-23T13:42:46.785Z,56.9
2023-02-23T13:43:46.779Z,56.7
2023-02-23T13:44:46.782Z,56.4
2023-02-23T13:45:46.844Z,57.2
2023-02-23T13:46:46.784Z,57
2023-02-23T13:47:46.771Z,57
2023-02-23T13:48:56.106Z,56.3
2023-02-23T13:49:46.807Z,57.5
2023-02-23T13:50:46.861Z,56.6
2023-02-23T13:51:46.784Z,56.7
2023-02-23T13:52:46.777Z,56.7
2023-02-23T13:53:46.782Z,57.6
2023-02-23T13:54:46.781Z,56.4
2023-02-23T13:55:49.565Z,57
2023-02-23T13:56:46.778Z,56.9
2023-02-23T13:57:46.773Z,56.8
2023-02-23T13:58:46.786Z,56.3
2023-02-23T13:59:46.890Z,56.6
2023-02-23T14:00:46.777Z,56.8
2023-02-23T14:01:46.886Z,56.9
2023-02-23T14:02:46.844Z,56.8
2023-02-23T14:03:46.783Z,56.5
2023-02-23T14:04:46.782Z,55.8
2023-02-23T14:05:46.812Z,55.6
2023-02-23T14:06:46.790Z,55.5
2023-02-23T14:07:46.843Z,55.5
2023-02-23T14:08:46.792Z,55
2023-02-23T14:09:46.781Z,55
2023-02-23T14:10:46.779Z,55
2023-02-23T14:11:46.782Z,54.9
2023-02-23T14:12:46.789Z,55.3
2023-02-23T14:13:46.780Z,55
2023-02-23T14:15:46.786Z,55.9
2023-02-23T14:16:46.784Z,55.4
2023-02-23T14:17:46.783Z,55.1
2023-02-23T14:18:46.791Z,55.2
2023-02-23T14:19:46.809Z,54.6
2023-02-23T14:20:46.842Z,54.5
2023-02-23T14:21:46.797Z,54.2
2023-02-23T14:22:46.799Z,54.8
2023-02-23T14:23:46.790Z,55.5
2023-02-23T14:24:46.795Z,55.6
2023-02-23T14:25:46.790Z,56.2
2023-02-23T14:26:46.788Z,56.2
2023-02-23T14:27:46.796Z,55.8
2023-02-23T14:28:46.828Z,55.5
2023-02-23T14:29:46.895Z,55.8
2023-02-23T14:30:46.900Z,55.6
2023-02-23T14:31:47.078Z,55.1
2023-02-23T14:32:46.860Z,54.8
2023-02-23T14:33:46.791Z,54.6
2023-02-23T14:34:46.792Z,54
2023-02-23T14:35:46.796Z,54
2023-02-23T14:36:46.801Z,53.9
2023-02-23T14:37:46.790Z,54
2023-02-23T14:38:48.393Z,54
2023-02-23T14:39:46.811Z,53.6
2023-02-23T14:40:46.857Z,54.3
2023-02-23T14:41:46.796Z,54.8
2023-02-23T14:42:46.796Z,54.5
2023-02-23T14:43:46.794Z,54.7
2023-02-23T14:44:46.792Z,55
2023-02-23T14:45:46.787Z,55.1
2023-02-23T14:46:46.838Z,54.7
2023-02-23T14:47:46.789Z,54.7
2023-02-23T14:48:46.792Z,53.9
2023-02-23T14:49:46.790Z,54.3
2023-02-23T14:50:46.788Z,54
2023-02-23T14:51:46.840Z,54.2
2023-02-23T14:52:46.802Z,54.2
2023-02-23T14:53:46.785Z,53.8
2023-02-23T14:54:46.800Z,53.4
2023-02-23T14:55:46.787Z,53
2023-02-23T14:56:46.799Z,53.3
2023-02-23T14:57:46.790Z,53.3
2023-02-23T14:58:46.800Z,53.8
2023-02-23T14:59:46.798Z,54.3
2023-02-23T15:00:46.782Z,53.9
2023-02-23T15:01:46.860Z,53.9
2023-02-23T15:02:54.148Z,53.9
2023-02-23T15:03:46.799Z,53.6
2023-02-23T15:04:46.916Z,53.8
2023-02-23T15:05:46.797Z,53.7
2023-02-23T15:07:46.786Z,53.3
2023-02-23T15:08:46.824Z,52.9
2023-02-23T15:09:46.793Z,53.2
2023-02-23T15:10:46.788Z,53.3
2023-02-23T15:11:46.795Z,53.1
2023-02-23T15:12:46.805Z,53.3
2023-02-23T15:13:46.790Z,52.9
2023-02-23T15:20:46.795Z,53.7
2023-02-23T15:21:46.814Z,54.4
2023-02-23T15:22:46.849Z,54.5
2023-02-23T15:23:46.821Z,54.8
2023-02-23T15:24:46.790Z,54.7
2023-02-23T15:25:46.797Z,55.8
2023-02-23T15:26:46.814Z,55.3
2023-02-23T15:27:46.799Z,54.8
2023-02-23T15:28:46.800Z,54.3
2023-02-23T15:29:46.800Z,53.9
2023-02-23T15:30:46.799Z,53.5
2023-02-23T15:31:47.008Z,53.4
2023-02-23T15:32:46.899Z,53.3
2023-02-23T15:33:46.795Z,52.8
2023-02-23T15:34:46.815Z,53.2
2023-02-23T15:35:46.811Z,54.3
2023-02-23T15:36:46.795Z,54.6
2023-02-23T15:37:48.915Z,54.2
2023-02-23T15:38:46.796Z,54.2
2023-02-23T15:39:46.808Z,53.9
2023-02-23T15:40:46.795Z,53.6
2023-02-23T15:41:46.796Z,53.3
2023-02-23T15:42:46.798Z,53.7
2023-02-23T15:43:46.818Z,53.6
2023-02-23T15:45:46.917Z,53.9
2023-02-23T15:46:46.803Z,54.3
2023-02-23T15:47:46.817Z,53.9
2023-02-23T15:48:46.796Z,54
2023-02-23T15:49:46.845Z,54.2
2023-02-23T15:50:46.798Z,54.3
2023-02-23T15:51:46.841Z,54.5
2023-02-23T15:52:46.795Z,54.4
2023-02-23T15:53:46.815Z,54.2
2023-02-23T15:54:46.808Z,54.3
2023-02-23T15:55:46.811Z,53.9
2023-02-23T15:56:47.043Z,54.4
2023-02-23T15:57:46.801Z,54.4
2023-02-23T15:58:56.107Z,54.8
2023-02-23T15:59:46.797Z,55
2023-02-23T16:00:46.798Z,56.5
2023-02-23T16:01:46.809Z,56.9
2023-02-23T16:02:46.799Z,57.9
2023-02-23T16:03:46.819Z,56.7
2023-02-23T16:04:47.011Z,56.1
2023-02-23T16:05:47.336Z,55.5
2023-02-23T16:06:46.798Z,55.7
2023-02-23T16:07:46.807Z,55.3
2023-02-23T16:08:46.795Z,55.1
2023-02-23T16:09:46.887Z,56.3
2023-02-23T16:10:46.839Z,57.1
2023-02-23T16:11:46.809Z,56.1
2023-02-23T16:12:46.879Z,57
2023-02-23T16:13:46.807Z,56.6
2023-02-23T16:14:46.822Z,56.8
2023-02-23T16:15:47.097Z,57.4
2023-02-23T16:16:46.875Z,57.8
2023-02-23T16:17:46.805Z,57.2
2023-02-23T16:18:46.802Z,56.6
2023-02-23T16:19:46.806Z,56
2023-02-23T16:20:46.804Z,56.4
2023-02-23T16:21:46.816Z,56.6
2023-02-23T16:22:46.802Z,56.4
2023-02-23T16:23:46.817Z,56.7
2023-02-23T16:24:46.843Z,56.2
2023-02-23T16:25:46.813Z,55.7
2023-02-23T16:26:46.820Z,55.2
2023-02-23T16:27:46.898Z,55.7
2023-02-23T16:28:46.811Z,56.5
2023-02-23T16:29:47.201Z,57.5
2023-02-23T16:30:46.819Z,57.1
2023-02-23T16:31:47.073Z,56.4
2023-02-23T16:32:47.010Z,55.6
2023-02-23T16:33:46.827Z,55.3
2023-02-23T16:34:46.807Z,56.7
2023-02-23T16:35:46.813Z,56.3
2023-02-23T16:36:46.808Z,56.3
2023-02-23T16:37:46.812Z,56.6
2023-02-23T16:38:46.812Z,57.6
2023-02-23T16:39:46.817Z,57.5